Time;durP1;ratioP1;P1;durP2;ratioP2;P2;SDS_P1;SDS_P2;PMS_P1;PMS_P2;Temp;Humidity;BMP_temperature;BMP_pressure;BME280_temperature;BME280_humidity;BME280_pressure;Samples;Min_cycle;Max_cycle;Signal;HPM_P1;HPM_P2
2023/08/10 00:00:12;;;;;;;2.30;2.10;;;22.70;58.00;;;;;;4904836;28;87813;-82
2023/08/10 00:02:40;;;;;;;2.33;2.13;;;22.70;58.00;;;;;;4908559;28;87936;-82
2023/08/10 00:05:06;;;;;;;2.25;2.05;;;22.70;57.90;;;;;;4908011;28;87900;-83
2023/08/10 00:07:33;;;;;;;2.17;1.98;;;22.60;58.10;;;;;;4904425;28;87246;-82
2023/08/10 00:10:02;;;;;;;2.90;2.30;;;22.60;58.10;;;;;;4905614;28;87515;-82
2023/08/10 00:12:28;;;;;;;2.13;1.92;;;22.60;58.20;;;;;;4898682;28;91186;-82
2023/08/10 00:14:55;;;;;;;2.45;2.10;;;22.60;58.10;;;;;;4905832;28;90345;-82
2023/08/10 00:17:23;;;;;;;2.03;1.83;;;22.60;58.10;;;;;;4907833;28;87456;-82
2023/08/10 00:19:49;;;;;;;2.30;1.98;;;22.60;58.00;;;;;;4902903;28;87723;-82
2023/08/10 00:22:15;;;;;;;2.55;2.00;;;22.60;58.10;;;;;;4903100;28;89015;-82
2023/08/10 00:24:44;;;;;;;2.55;2.25;;;22.60;58.20;;;;;;4904843;28;88419;-82
2023/08/10 00:27:10;;;;;;;;;;;22.60;57.80;;;;;;4905674;28;87455;-82
2023/08/10 00:29:37;;;;;;;2.65;2.08;;;22.60;57.70;;;;;;4905941;28;87218;-82
2023/08/10 00:32:02;;;;;;;2.30;2.10;;;22.60;57.80;;;;;;4903830;28;87461;-82
2023/08/10 00:34:28;;;;;;;2.33;2.00;;;22.60;57.80;;;;;;4903218;28;87756;-82
2023/08/10 00:36:54;;;;;;;2.70;2.17;;;22.60;57.70;;;;;;4902208;28;87363;-82
2023/08/10 00:39:22;;;;;;;1.95;1.85;;;22.60;57.80;;;;;;4906514;28;86868;-82
2023/08/10 00:41:48;;;;;;;1.83;1.67;;;22.60;57.90;;;;;;4906801;28;88205;-82
2023/08/10 00:44:16;;;;;;;2.10;1.65;;;22.60;58.10;;;;;;4899679;28;88714;-82
2023/08/10 00:46:44;;;;;;;2.15;1.95;;;22.60;57.90;;;;;;4903262;28;88055;-82
2023/08/10 00:49:10;;;;;;;3.30;2.25;;;22.60;57.90;;;;;;4905158;28;87447;-82
2023/08/10 00:51:35;;;;;;;2.20;2.00;;;22.60;58.10;;;;;;4903046;28;88156;-82
2023/08/10 00:54:02;;;;;;;2.28;2.08;;;22.60;58.00;;;;;;4909488;28;87490;-82
2023/08/10 00:56:28;;;;;;;2.22;2.00;;;22.50;58.20;;;;;;4910552;28;87575;-82
2023/08/10 00:58:56;;;;;;;4.00;2.15;;;22.60;58.20;;;;;;4905536;28;87405;-82
2023/08/10 01:01:22;;;;;;;2.28;1.95;;;22.50;58.20;;;;;;4908886;28;86874;-83
2023/08/10 01:03:47;;;;;;;2.20;2.00;;;22.50;58.10;;;;;;4910389;28;87214;-82
2023/08/10 01:06:30;;;;;;;2.00;1.70;;;22.50;58.80;;;;;;4901508;28;87730;-82
2023/08/10 01:09:19;;;;;;;2.15;1.95;;;22.50;58.00;;;;;;4908800;28;88619;-82
2023/08/10 01:12:11;;;;;;;2.10;1.90;;;22.50;58.10;;;;;;4906147;28;94578;-82
2023/08/10 01:14:52;;;;;;;1.60;1.50;;;22.50;58.00;;;;;;4904294;28;91232;-82
2023/08/10 01:17:40;;;;;;;2.65;2.13;;;22.50;58.10;;;;;;4905312;28;87721;-82
2023/08/10 01:20:09;;;;;;;2.03;1.85;;;22.50;58.10;;;;;;4905991;28;87063;-82
2023/08/10 01:22:56;;;;;;;1.75;1.65;;;22.50;58.20;;;;;;4897043;28;87392;-82
2023/08/10 01:25:26;;;;;;;2.10;1.80;;;22.50;58.30;;;;;;4905407;28;87322;-82
2023/08/10 01:27:54;;;;;;;2.28;1.65;;;22.50;58.20;;;;;;4898599;28;87506;-82
2023/08/10 01:30:21;;;;;;;1.80;1.60;;;22.40;58.10;;;;;;4908054;28;86945;-82
2023/08/10 01:32:52;;;;;;;2.58;2.00;;;22.50;58.10;;;;;;4907150;28;89015;-82
2023/08/10 01:35:18;;;;;;;2.53;1.77;;;22.40;58.20;;;;;;4903688;28;87348;-82
2023/08/10 01:37:44;;;;;;;1.90;1.73;;;22.40;58.20;;;;;;4902005;28;88231;-83
2023/08/10 01:40:12;;;;;;;1.77;1.60;;;22.40;58.20;;;;;;4907902;28;87244;-82
2023/08/10 01:42:42;;;;;;;2.35;1.90;;;22.40;58.30;;;;;;4901402;28;88798;-82
2023/08/10 01:45:10;;;;;;;2.33;2.10;;;22.40;58.30;;;;;;4907487;28;87246;-82
2023/08/10 01:48:03;;;;;;;3.28;1.80;;;22.40;58.30;;;;;;4903447;28;87021;-82
2023/08/10 01:50:33;;;;;;;2.10;1.90;;;22.40;58.40;;;;;;4906726;28;89203;-82
2023/08/10 01:53:12;;;;;;;1.75;1.65;;;22.40;58.40;;;;;;4904421;28;88197;-82
2023/08/10 01:55:42;;;;;;;2.25;1.73;;;22.40;58.40;;;;;;4895432;28;88125;-82
2023/08/10 01:58:08;;;;;;;2.42;1.92;;;22.40;58.40;;;;;;4903579;28;87388;-82
2023/08/10 02:00:37;;;;;;;1.60;1.40;;;22.40;58.50;;;;;;4902229;28;88029;-82
2023/08/10 02:03:03;;;;;;;;;;;22.40;58.50;;;;;;4905830;28;89711;-82
2023/08/10 02:05:29;;;;;;;2.13;1.90;;;22.30;58.50;;;;;;4905757;28;91012;-82
2023/08/10 02:07:55;;;;;;;1.70;1.60;;;22.40;58.50;;;;;;4905479;28;87386;-82
2023/08/10 02:10:23;;;;;;;1.52;1.42;;;22.40;58.50;;;;;;4903654;28;86935;-82
2023/08/10 02:12:53;;;;;;;3.85;2.05;;;22.40;58.60;;;;;;4907420;28;87793;-82
2023/08/10 02:15:23;;;;;;;2.45;1.95;;;22.30;58.50;;;;;;4908450;28;89042;-82
2023/08/10 02:17:48;;;;;;;2.08;1.63;;;22.30;58.60;;;;;;4906160;28;87905;-82
2023/08/10 02:20:14;;;;;;;1.98;1.70;;;22.30;58.60;;;;;;4909804;28;87057;-82
2023/08/10 02:22:52;;;;;;;1.80;1.65;;;22.30;58.50;;;;;;4908707;28;88750;-82
2023/08/10 02:25:22;;;;;;;2.10;1.90;;;22.30;58.50;;;;;;4909434;28;87501;-82
2023/08/10 02:27:50;;;;;;;1.95;1.65;;;22.30;58.60;;;;;;4907329;28;88134;-82
2023/08/10 02:30:16;;;;;;;2.00;1.80;;;22.30;58.80;;;;;;4906545;28;87741;-83
2023/08/10 02:32:45;;;;;;;2.35;1.67;;;22.30;58.70;;;;;;4907560;28;87965;-82
2023/08/10 02:35:14;;;;;;;1.70;1.60;;;22.30;58.70;;;;;;4903533;28;87487;-82
2023/08/10 02:37:40;;;;;;;1.52;1.40;;;22.30;58.70;;;;;;4901669;28;87268;-82
2023/08/10 02:40:10;;;;;;;1.85;1.75;;;22.30;58.60;;;;;;4897427;28;87753;-82
2023/08/10 02:42:35;;;;;;;2.00;1.67;;;22.30;58.70;;;;;;4904606;28;88094;-82
2023/08/10 02:45:02;;;;;;;1.88;1.77;;;22.30;58.80;;;;;;4908833;28;87934;-82
2023/08/10 02:47:27;;;;;;;2.08;1.80;;;22.30;58.70;;;;;;4905228;28;87551;-82
2023/08/10 02:49:53;;;;;;;1.48;1.38;;;22.30;58.60;;;;;;4904618;28;87862;-82
2023/08/10 02:52:20;;;;;;;2.03;1.83;;;22.30;58.70;;;;;;4904663;28;89039;-82
2023/08/10 02:54:46;;;;;;;1.70;1.60;;;22.30;58.70;;;;;;4907607;28;89612;-82
2023/08/10 02:57:14;;;;;;;1.52;1.42;;;22.30;58.80;;;;;;4909118;28;86988;-82
2023/08/10 02:59:40;;;;;;;2.17;1.97;;;22.30;58.80;;;;;;4909436;28;87140;-83
2023/08/10 03:02:07;;;;;;;1.67;1.58;;;22.20;58.80;;;;;;4907629;28;90730;-82
2023/08/10 03:04:33;;;;;;;1.63;1.52;;;22.20;58.70;;;;;;4909636;28;87991;-82
2023/08/10 03:07:00;;;;;;;1.60;1.50;;;22.30;58.90;;;;;;4904963;28;87519;-82
2023/08/10 03:09:27;;;;;;;2.42;1.85;;;22.20;58.80;;;;;;4911969;28;86904;-82
2023/08/10 03:11:54;;;;;;;1.95;1.58;;;22.20;58.70;;;;;;4908626;28;89488;-82
2023/08/10 03:14:21;;;;;;;2.00;1.80;;;22.20;58.60;;;;;;4905249;28;87402;-82
2023/08/10 03:16:46;;;;;;;1.95;1.80;;;22.20;58.80;;;;;;4910252;28;88977;-82
2023/08/10 03:19:12;;;;;;;1.70;1.60;;;22.20;58.70;;;;;;4906624;28;87258;-82
2023/08/10 03:21:38;;;;;;;2.25;1.80;;;22.20;58.80;;;;;;4909437;28;88549;-82
2023/08/10 03:24:05;;;;;;;1.50;1.40;;;22.20;58.70;;;;;;4914504;28;88594;-82
2023/08/10 03:26:30;;;;;;;1.95;1.80;;;22.20;58.70;;;;;;4913342;28;86958;-82
2023/08/10 03:28:56;;;;;;;1.92;1.63;;;22.20;58.70;;;;;;4908598;28;87686;-83
2023/08/10 03:31:23;;;;;;;2.05;1.65;;;22.20;58.80;;;;;;4905197;28;88438;-83
2023/08/10 03:33:53;;;;;;;1.65;1.50;;;22.20;58.70;;;;;;4911616;28;86491;-83
2023/08/10 03:36:19;;;;;;;1.75;1.52;;;22.20;58.80;;;;;;4912087;28;87477;-83
2023/08/10 03:38:46;;;;;;;1.45;1.35;;;22.20;58.70;;;;;;4912168;28;87260;-83
2023/08/10 03:41:16;;;;;;;2.50;1.70;;;22.20;58.80;;;;;;4912089;28;88293;-83
2023/08/10 03:43:42;;;;;;;1.67;1.58;;;22.20;59.00;;;;;;4915541;28;87627;-83
2023/08/10 03:46:08;;;;;;;1.98;1.70;;;22.20;58.90;;;;;;4910296;28;87187;-82
2023/08/10 03:48:34;;;;;;;1.65;1.52;;;22.20;58.90;;;;;;4909903;28;87361;-82
2023/08/10 03:51:01;;;;;;;1.63;1.52;;;22.20;58.90;;;;;;4922600;28;90823;-83
2023/08/10 03:53:27;;;;;;;1.50;1.40;;;22.20;59.00;;;;;;4903276;28;87846;-83
2023/08/10 03:55:52;;;;;;;2.47;1.80;;;22.20;59.00;;;;;;4907401;28;87605;-83
2023/08/10 03:58:18;;;;;;;1.80;1.60;;;22.20;58.80;;;;;;4909910;28;86875;-82
2023/08/10 04:00:47;;;;;;;1.95;1.70;;;22.20;58.90;;;;;;4905651;28;88569;-83
2023/08/10 04:03:20;;;;;;;1.63;1.30;;;22.20;58.90;;;;;;4896758;28;87233;-83
2023/08/10 04:05:46;;;;;;;1.63;1.52;;;22.20;59.00;;;;;;4890731;28;89327;-83
2023/08/10 04:08:13;;;;;;;1.98;1.80;;;22.20;58.80;;;;;;4906788;28;87760;-83
2023/08/10 04:10:39;;;;;;;2.45;1.73;;;22.20;58.90;;;;;;4907102;28;88855;-83
2023/08/10 04:13:06;;;;;;;1.55;1.45;;;22.20;58.90;;;;;;4905313;28;87451;-83
2023/08/10 04:15:32;;;;;;;1.90;1.60;;;22.20;58.90;;;;;;4907401;28;87764;-83
2023/08/10 04:18:06;;;;;;;1.40;1.30;;;22.20;58.90;;;;;;4910548;28;87135;-82
2023/08/10 04:20:32;;;;;;;1.38;1.27;;;22.20;59.00;;;;;;4908150;28;92097;-83
2023/08/10 04:23:02;;;;;;;1.92;1.58;;;22.20;59.10;;;;;;4907351;28;87933;-83
2023/08/10 04:25:29;;;;;;;1.48;1.38;;;22.20;58.90;;;;;;4904909;28;86846;-83
2023/08/10 04:27:55;;;;;;;1.65;1.48;;;22.20;58.80;;;;;;4907978;28;89261;-83
2023/08/10 04:30:28;;;;;;;2.17;1.27;;;22.20;58.90;;;;;;4910250;28;89127;-82
2023/08/10 04:32:55;;;;;;;1.85;1.52;;;22.20;58.90;;;;;;4904453;28;92939;-83
2023/08/10 04:35:21;;;;;;;1.50;1.40;;;22.20;58.80;;;;;;4908289;28;87385;-82
2023/08/10 04:37:49;;;;;;;1.48;1.38;;;22.20;58.80;;;;;;4910077;28;87668;-83
2023/08/10 04:40:15;;;;;;;1.38;1.27;;;22.20;58.90;;;;;;4909534;28;87639;-83
2023/08/10 04:42:43;;;;;;;1.63;1.52;;;22.20;59.00;;;;;;4906374;28;86934;-83
2023/08/10 04:45:09;;;;;;;1.45;1.35;;;22.20;58.90;;;;;;4911295;28;87586;-83
2023/08/10 04:47:35;;;;;;;1.70;1.58;;;22.20;58.90;;;;;;4909678;28;86651;-82
2023/08/10 04:50:03;;;;;;;1.67;1.58;;;22.20;58.90;;;;;;4909699;28;87946;-83
2023/08/10 04:52:29;;;;;;;1.75;1.40;;;22.20;58.90;;;;;;4909556;28;87936;-83
2023/08/10 04:54:55;;;;;;;1.60;1.45;;;22.20;59.10;;;;;;4908146;28;88277;-82
2023/08/10 04:57:21;;;;;;;1.20;1.10;;;22.10;58.90;;;;;;4909102;28;87918;-83
2023/08/10 04:59:50;;;;;;;1.65;1.55;;;22.20;59.00;;;;;;4907901;28;88818;-83
2023/08/10 05:02:16;;;;;;;1.73;1.63;;;22.10;59.10;;;;;;4913403;28;88587;-83
2023/08/10 05:04:41;;;;;;;1.50;1.40;;;22.10;58.80;;;;;;4908358;28;87510;-83
2023/08/10 05:07:07;;;;;;;1.67;1.30;;;22.20;59.10;;;;;;4911051;28;87209;-82
2023/08/10 05:09:33;;;;;;;2.03;1.50;;;22.20;59.00;;;;;;4907160;28;88763;-82
2023/08/10 05:12:00;;;;;;;1.50;1.40;;;22.20;58.90;;;;;;4909603;28;86762;-82
2023/08/10 05:14:28;;;;;;;1.33;1.20;;;22.30;58.80;;;;;;4906877;28;87024;-82
2023/08/10 05:16:54;;;;;;;1.50;1.40;;;22.40;58.60;;;;;;4905629;28;87232;-83
2023/08/10 05:19:19;;;;;;;1.45;1.30;;;22.40;59.20;;;;;;4907151;28;88634;-83
2023/08/10 05:21:46;;;;;;;1.23;1.13;;;22.40;58.60;;;;;;4908360;28;89593;-83
2023/08/10 05:24:16;;;;;;;1.80;1.52;;;22.40;58.70;;;;;;4908428;28;87514;-82
2023/08/10 05:26:42;;;;;;;1.50;1.40;;;22.40;58.80;;;;;;4905380;28;87530;-82
2023/08/10 05:29:09;;;;;;;2.45;1.60;;;22.40;58.70;;;;;;4922364;28;88035;-82
2023/08/10 05:31:40;;;;;;;2.22;1.33;;;22.40;58.90;;;;;;4909352;28;87500;-82
2023/08/10 05:34:05;;;;;;;1.55;1.20;;;22.40;58.90;;;;;;4911642;28;87373;-82
2023/08/10 05:36:32;;;;;;;1.60;1.27;;;22.40;58.90;;;;;;4903987;28;89599;-82
2023/08/10 05:38:59;;;;;;;1.40;1.30;;;22.40;59.00;;;;;;4906910;28;90997;-82
2023/08/10 05:41:25;;;;;;;1.92;1.60;;;22.40;58.90;;;;;;4907444;28;87284;-82
2023/08/10 05:43:53;;;;;;;1.35;1.25;;;22.40;58.90;;;;;;4904416;28;89517;-82
2023/08/10 05:46:19;;;;;;;1.73;1.38;;;22.50;58.90;;;;;;4904488;28;87097;-82
2023/08/10 05:48:45;;;;;;;1.38;1.27;;;22.50;58.90;;;;;;4906447;28;88375;-82
2023/08/10 05:51:10;;;;;;;1.42;1.30;;;22.60;58.90;;;;;;4907755;28;87928;-82
2023/08/10 05:53:37;;;;;;;1.60;1.50;;;22.60;58.80;;;;;;4896905;28;87413;-82
2023/08/10 05:56:06;;;;;;;1.50;1.38;;;22.60;58.80;;;;;;4906147;28;86967;-82
2023/08/10 05:58:37;;;;;;;1.40;1.30;;;22.70;58.80;;;;;;4904116;28;87962;-83
2023/08/10 06:01:03;;;;;;;3.03;1.63;;;22.70;58.20;;;;;;4906300;28;90136;-82
2023/08/10 06:03:29;;;;;;;5.25;1.95;;;22.70;56.90;;;;;;4900224;28;88324;-87
2023/08/10 06:05:55;;;;;;;6.03;2.05;;;22.80;54.70;;;;;;4905236;28;87908;-84
2023/08/10 06:08:20;;;;;;;6.55;1.70;;;22.60;53.90;;;;;;4896659;28;88905;-91
2023/08/10 06:10:49;;;;;;;7.97;2.38;;;22.60;53.50;;;;;;4900375;28;88854;-83
2023/08/10 06:13:18;;;;;;;7.38;2.55;;;22.50;53.30;;;;;;4897266;28;88025;-82
2023/08/10 06:15:47;;;;;;;6.18;2.00;;;22.60;53.90;;;;;;4898364;28;87972;-86
2023/08/10 06:18:13;;;;;;;6.10;2.33;;;22.60;53.60;;;;;;4900510;28;88282;-88
2023/08/10 06:20:39;;;;;;;9.77;2.60;;;22.60;53.30;;;;;;4896493;28;87387;-80
2023/08/10 06:23:05;;;;;;;8.90;2.70;;;22.50;52.90;;;;;;4889925;28;87240;-81
2023/08/10 06:25:31;;;;;;;10.00;3.03;;;22.50;53.10;;;;;;4891826;28;90325;-86
2023/08/10 06:28:00;;;;;;;33.83;6.72;;;22.60;53.20;;;;;;4887834;28;87215;-83
2023/08/10 06:30:26;;;;;;;32.78;7.25;;;22.70;53.40;;;;;;4886510;28;87589;-83
2023/08/10 06:32:51;;;;;;;27.65;5.65;;;22.70;53.10;;;;;;4889311;28;88771;-83
2023/08/10 06:35:20;;;;;;;26.85;7.03;;;22.60;52.80;;;;;;4891623;28;94727;-82
2023/08/10 06:40:12;;;;;;;34.15;5.85;;;22.70;53.30;;;;;;4885378;28;87263;-84
2023/08/10 06:42:37;;;;;;;33.05;6.10;;;22.70;53.00;;;;;;4894790;28;87693;-82
2023/08/10 06:45:04;;;;;;;22.13;5.50;;;22.80;53.30;;;;;;4898799;28;88862;-83
2023/08/10 06:47:31;;;;;;;21.48;5.28;;;22.80;53.10;;;;;;4896671;28;87985;-84
2023/08/10 06:49:57;;;;;;;22.20;5.03;;;22.80;53.50;;;;;;4897817;28;86893;-82
2023/08/10 06:52:24;;;;;;;17.95;4.65;;;22.80;53.70;;;;;;4896608;28;87666;-85
2023/08/10 06:54:52;;;;;;;18.60;4.18;;;22.90;54.20;;;;;;4893848;28;87189;-83
2023/08/10 06:57:22;;;;;;;14.43;4.40;;;22.90;54.00;;;;;;4893908;28;90795;-84
2023/08/10 06:59:48;;;;;;;19.23;3.92;;;22.90;54.30;;;;;;4896847;28;88474;-83
2023/08/10 07:02:15;;;;;;;14.60;4.03;;;23.00;54.40;;;;;;4887974;28;87629;-84
2023/08/10 07:04:43;;;;;;;17.02;3.63;;;23.10;54.50;;;;;;4900374;28;87598;-83
2023/08/10 07:07:15;;;;;;;19.58;3.92;;;23.10;54.70;;;;;;4900444;28;87780;-88
2023/08/10 07:09:42;;;;;;;13.85;4.13;;;23.20;54.60;;;;;;4903877;28;88028;-85
2023/08/10 07:12:07;;;;;;;12.18;3.47;;;23.20;54.60;;;;;;4902136;28;87665;-89
2023/08/10 07:14:33;;;;;;;14.50;3.58;;;23.10;55.00;;;;;;4899703;28;87467;-82
2023/08/10 07:16:59;;;;;;;11.35;3.25;;;23.10;54.90;;;;;;4897017;28;87905;-85
2023/08/10 07:19:24;;;;;;;18.92;3.65;;;23.20;54.70;;;;;;4897774;28;87649;-82
2023/08/10 07:21:55;;;;;;;12.05;3.33;;;23.20;55.00;;;;;;4894917;28;88206;-83
2023/08/10 07:24:22;;;;;;;11.05;2.80;;;23.20;55.10;;;;;;4899016;28;87855;-85
2023/08/10 07:26:50;;;;;;;12.50;3.22;;;23.10;55.20;;;;;;4897158;28;87658;-84
2023/08/10 07:29:16;;;;;;;10.68;3.17;;;23.20;55.10;;;;;;4898197;28;87373;-83
2023/08/10 07:31:41;;;;;;;16.05;3.38;;;23.20;55.10;;;;;;4900428;28;87693;-82
2023/08/10 07:34:09;;;;;;;12.75;3.20;;;23.20;55.20;;;;;;4898815;28;87784;-83
2023/08/10 07:36:34;;;;;;;14.10;2.65;;;23.30;55.10;;;;;;4894698;28;87675;-85
2023/08/10 07:39:00;;;;;;;14.18;3.80;;;23.30;54.80;;;;;;4903092;28;86712;-84
2023/08/10 07:41:26;;;;;;;10.90;3.00;;;23.20;54.30;;;;;;4901599;28;87397;-90
2023/08/10 07:43:52;;;;;;;15.23;2.55;;;23.30;54.70;;;;;;4901700;28;87487;-84
2023/08/10 07:46:18;;;;;;;14.65;2.97;;;23.30;54.60;;;;;;4900837;28;88997;-85
2023/08/10 07:48:46;;;;;;;8.65;3.17;;;23.40;54.40;;;;;;4897311;28;89814;-86
2023/08/10 07:51:11;;;;;;;11.75;3.00;;;23.40;54.50;;;;;;4897813;28;87189;-84
2023/08/10 07:53:37;;;;;;;10.80;2.70;;;23.40;54.80;;;;;;4900566;28;87464;-82
2023/08/10 07:56:03;;;;;;;7.18;2.33;;;23.40;54.70;;;;;;4892298;28;88530;-82
2023/08/10 07:58:29;;;;;;;8.48;2.40;;;23.50;54.40;;;;;;4896400;28;87495;-86
2023/08/10 08:00:55;;;;;;;8.85;2.60;;;23.40;54.60;;;;;;4896757;28;87925;-84
2023/08/10 08:03:21;;;;;;;15.48;3.15;;;23.40;54.60;;;;;;4895763;28;86956;-86
2023/08/10 08:05:47;;;;;;;10.35;2.70;;;23.40;54.60;;;;;;4895769;28;87836;-85
2023/08/10 08:08:12;;;;;;;5.43;2.42;;;23.40;54.30;;;;;;4894914;28;87831;-88
2023/08/10 08:10:41;;;;;;;6.30;2.60;;;23.50;54.10;;;;;;4891436;28;88819;-86
2023/08/10 08:13:07;;;;;;;8.63;2.17;;;23.60;53.90;;;;;;4893626;28;89816;-87
2023/08/10 08:15:34;;;;;;;10.00;2.10;;;23.60;53.70;;;;;;4897341;28;90891;-89
2023/08/10 08:18:37;;;;;;;7.22;1.95;;;23.50;53.70;;;;;;4904139;28;88064;-86
2023/08/10 08:21:04;;;;;;;10.30;2.95;;;23.60;53.40;;;;;;4894221;28;87943;-86
2023/08/10 08:23:30;;;;;;;14.43;2.75;;;23.50;53.20;;;;;;4891635;28;89426;-84
2023/08/10 08:25:55;;;;;;;8.20;2.40;;;23.40;53.10;;;;;;4896297;28;89294;-82
2023/08/10 08:28:22;;;;;;;8.15;1.80;;;23.50;52.20;;;;;;4894097;28;88422;-84
2023/08/10 08:30:49;;;;;;;6.00;2.28;;;23.70;51.80;;;;;;4891857;28;87243;-84
2023/08/10 08:33:16;;;;;;;6.07;2.00;;;23.70;52.00;;;;;;4898673;28;87807;-82
2023/08/10 08:35:45;;;;;;;7.22;1.83;;;23.70;52.20;;;;;;4891925;28;91715;-85
2023/08/10 08:38:11;;;;;;;7.85;1.90;;;23.80;52.40;;;;;;4891705;28;88136;-83
2023/08/10 08:40:37;;;;;;;8.75;2.15;;;23.70;52.50;;;;;;4893487;28;87749;-82
2023/08/10 08:43:04;;;;;;;7.47;2.25;;;23.70;52.30;;;;;;4893638;28;87125;-84
2023/08/10 08:45:30;;;;;;;6.68;2.45;;;23.70;52.70;;;;;;4894009;28;87918;-82
2023/08/10 08:47:57;;;;;;;5.82;2.05;;;23.60;52.70;;;;;;4893229;28;88027;-81
2023/08/10 08:50:25;;;;;;;9.82;2.13;;;23.50;52.40;;;;;;4901008;28;88186;-83
2023/08/10 08:52:52;;;;;;;11.02;2.22;;;23.50;52.50;;;;;;4894331;28;87468;-82
2023/08/10 08:55:18;;;;;;;6.63;2.20;;;23.50;52.50;;;;;;4891533;28;89119;-82
2023/08/10 08:57:44;;;;;;;5.38;2.30;;;23.50;52.60;;;;;;4895931;28;88166;-83
2023/08/10 09:00:10;;;;;;;6.72;2.10;;;23.50;52.70;;;;;;4904527;28;89211;-88
2023/08/10 09:02:36;;;;;;;8.40;2.28;;;23.50;52.20;;;;;;4902631;28;89503;-85
2023/08/10 09:05:03;;;;;;;4.43;2.05;;;23.50;51.90;;;;;;4904788;28;87847;-83
2023/08/10 09:07:30;;;;;;;4.80;1.55;;;23.50;52.40;;;;;;4903412;28;88236;-91
2023/08/10 09:09:56;;;;;;;8.77;2.05;;;23.50;52.10;;;;;;4900844;28;87221;-82
2023/08/10 09:12:36;;;;;;;10.32;2.33;;;23.50;52.30;;;;;;4896303;28;87021;-87
2023/08/10 09:15:09;;;;;;;9.82;2.65;;;23.50;52.00;;;;;;4904591;28;89164;-84
2023/08/10 09:17:43;;;;;;;11.95;2.92;;;23.50;52.00;;;;;;4903786;28;92427;-83
2023/08/10 09:20:09;;;;;;;10.43;3.03;;;23.50;52.00;;;;;;4897611;28;87462;-85
2023/08/10 09:22:37;;;;;;;10.38;3.55;;;23.50;52.40;;;;;;4903040;28;88525;-83
2023/08/10 09:25:06;;;;;;;16.00;4.88;;;23.50;52.10;;;;;;4904886;28;89026;-85
2023/08/10 09:27:33;;;;;;;25.95;5.53;;;23.40;51.30;;;;;;4900878;28;90378;-86
2023/08/10 09:30:04;;;;;;;16.48;4.57;;;23.60;50.90;;;;;;4906099;28;87972;-84
2023/08/10 09:32:30;;;;;;;17.63;5.10;;;23.70;51.10;;;;;;4887398;28;91976;-85
2023/08/10 09:34:56;;;;;;;15.18;4.18;;;23.60;51.40;;;;;;4897089;28;87588;-83
2023/08/10 09:37:23;;;;;;;10.90;3.78;;;23.70;51.20;;;;;;4894837;28;87966;-82
2023/08/10 09:39:55;;;;;;;14.20;3.90;;;23.70;51.10;;;;;;4897959;28;87591;-84
2023/08/10 09:42:20;;;;;;;11.20;3.38;;;23.80;51.40;;;;;;4901336;28;86971;-86
2023/08/10 09:44:48;;;;;;;7.82;2.95;;;23.90;51.50;;;;;;4898341;28;87647;-87
2023/08/10 09:47:15;;;;;;;8.43;3.20;;;23.90;51.40;;;;;;4897171;28;87951;-88
2023/08/10 09:49:56;;;;;;;11.85;3.13;;;23.90;51.50;;;;;;4885172;28;89123;-82
2023/08/10 09:52:25;;;;;;;11.35;3.45;;;23.90;51.60;;;;;;4894758;28;87582;-86
2023/08/10 09:54:53;;;;;;;11.82;2.58;;;23.90;51.70;;;;;;4895172;28;88468;-86
2023/08/10 09:57:19;;;;;;;8.07;2.65;;;23.80;51.90;;;;;;4894761;28;87842;-87
2023/08/10 09:59:46;;;;;;;4.03;2.05;;;23.70;52.10;;;;;;4896033;28;87838;-88
2023/08/10 10:02:13;;;;;;;6.82;1.83;;;23.90;51.70;;;;;;4894987;28;88055;-83
2023/08/10 10:04:39;;;;;;;8.05;2.20;;;24.00;51.50;;;;;;4898796;28;87726;-82
2023/08/10 10:07:09;;;;;;;5.97;2.38;;;24.00;51.50;;;;;;4898072;28;88288;-84
2023/08/10 10:09:38;;;;;;;9.68;2.58;;;24.10;51.40;;;;;;4897892;28;86888;-83
2023/08/10 10:12:14;;;;;;;5.68;1.95;;;24.10;51.40;;;;;;4895426;28;89965;-86
2023/08/10 10:14:42;;;;;;;4.45;1.98;;;24.20;51.70;;;;;;4898757;28;89170;-83
2023/08/10 10:17:16;;;;;;;6.97;2.38;;;24.20;51.90;;;;;;4897030;28;88407;-86
2023/08/10 10:19:43;;;;;;;5.75;2.40;;;24.30;51.80;;;;;;4899477;28;87054;-83
2023/08/10 10:22:10;;;;;;;3.70;1.80;;;24.30;51.90;;;;;;4903531;28;89964;-83
2023/08/10 10:24:40;;;;;;;8.70;2.22;;;24.30;52.00;;;;;;4901005;28;87637;-84
2023/08/10 10:27:09;;;;;;;10.52;2.10;;;24.30;51.90;;;;;;4910789;28;87839;-84
2023/08/10 10:29:37;;;;;;;6.53;2.13;;;24.30;51.90;;;;;;4905999;28;87454;-83
2023/08/10 10:32:12;;;;;;;4.93;2.03;;;24.30;51.80;;;;;;4908551;28;86706;-83
2023/08/10 10:34:39;;;;;;;3.88;2.35;;;24.30;51.70;;;;;;4904995;28;88353;-84
2023/08/10 10:37:18;;;;;;;5.10;2.20;;;24.30;51.90;;;;;;4905631;28;87502;-84
2023/08/10 10:39:47;;;;;;;4.20;2.30;;;24.30;51.80;;;;;;4905608;28;88364;-85
2023/08/10 10:42:15;;;;;;;;;;;24.40;52.10;;;;;;4904964;28;88008;-89
2023/08/10 10:45:00;;;;;;;4.95;1.75;;;24.40;52.00;;;;;;4903054;28;88609;-92
2023/08/10 10:47:49;;;;;;;5.72;2.05;;;24.40;52.10;;;;;;4901810;28;88586;-83
2023/08/10 10:50:29;;;;;;;5.22;2.05;;;24.40;52.30;;;;;;4898732;28;87981;-85
2023/08/10 10:52:59;;;;;;;3.97;1.48;;;24.40;52.60;;;;;;4899634;28;88001;-84
2023/08/10 10:55:27;;;;;;;3.63;1.45;;;24.40;52.50;;;;;;4915721;28;91875;-89
2023/08/10 10:57:53;;;;;;;7.68;3.50;;;24.40;52.60;;;;;;4903263;28;87753;-88
2023/08/10 11:00:20;;;;;;;3.60;2.08;;;24.40;52.70;;;;;;4902133;28;87192;-87
2023/08/10 11:02:47;;;;;;;6.80;1.98;;;24.40;52.70;;;;;;4902382;28;89534;-88
2023/08/10 11:05:14;;;;;;;8.82;2.80;;;24.40;52.60;;;;;;4899934;28;89503;-87
2023/08/10 11:07:44;;;;;;;12.38;2.50;;;24.40;52.90;;;;;;4901172;28;88503;-85
2023/08/10 11:10:11;;;;;;;6.75;2.50;;;24.40;53.00;;;;;;4890719;28;87135;-85
2023/08/10 11:12:42;;;;;;;6.25;2.10;;;24.40;53.00;;;;;;4898650;28;88553;-86
2023/08/10 11:15:10;;;;;;;6.57;2.30;;;24.40;53.20;;;;;;4901729;28;87334;-92
2023/08/10 11:17:37;;;;;;;5.75;2.42;;;24.40;53.80;;;;;;4901099;28;89944;-90
2023/08/10 11:20:15;;;;;;;5.13;2.00;;;24.40;52.90;;;;;;4899789;28;87603;-89
2023/08/10 11:22:45;;;;;;;7.10;2.10;;;24.30;52.80;;;;;;4900507;28;86856;-86
2023/08/10 11:25:11;;;;;;;9.07;2.30;;;24.00;53.20;;;;;;4900336;28;87723;-87
2023/08/10 11:27:43;;;;;;;10.05;1.83;;;24.00;52.60;;;;;;4899228;28;87977;-85
2023/08/10 11:30:13;;;;;;;5.22;1.90;;;24.00;52.10;;;;;;4898798;28;88490;-85
2023/08/10 11:32:44;;;;;;;3.22;1.50;;;23.90;52.10;;;;;;4900231;28;87529;-83
2023/08/10 11:35:12;;;;;;;8.35;2.08;;;23.90;52.20;;;;;;4897718;28;88184;-89
2023/08/10 11:37:39;;;;;;;4.63;2.15;;;23.90;51.80;;;;;;4896683;28;90319;-82
2023/08/10 11:40:12;;;;;;;2.95;1.45;;;23.80;52.20;;;;;;4900576;28;87832;-85
2023/08/10 11:42:43;;;;;;;4.93;1.77;;;23.80;51.90;;;;;;4898779;28;88086;-85
2023/08/10 11:45:20;;;;;;;4.47;1.88;;;23.90;51.90;;;;;;4897465;28;88165;-82
2023/08/10 11:47:52;;;;;;;8.32;2.05;;;23.90;52.00;;;;;;4899762;28;86830;-83
2023/08/10 11:50:19;;;;;;;9.05;2.00;;;23.80;52.10;;;;;;4898779;28;87241;-83
2023/08/10 11:52:45;;;;;;;7.18;1.75;;;23.80;52.20;;;;;;4897425;28;88414;-86
2023/08/10 11:55:16;;;;;;;8.48;2.00;;;23.80;52.20;;;;;;4898952;28;89243;-92
2023/08/10 11:57:49;;;;;;;6.05;1.67;;;23.70;52.30;;;;;;4900199;28;88661;-86
2023/08/10 12:00:21;;;;;;;10.05;2.17;;;23.80;52.70;;;;;;4899458;28;86993;-83
2023/08/10 12:03:13;;;;;;;5.65;1.85;;;23.80;52.60;;;;;;4901705;28;88047;-86
2023/08/10 12:05:50;;;;;;;6.40;1.80;;;23.80;52.80;;;;;;4898882;28;91749;-86
2023/08/10 12:08:18;;;;;;;4.22;2.15;;;23.80;52.90;;;;;;4900153;28;87682;-86
2023/08/10 12:10:50;;;;;;;6.90;1.92;;;23.80;53.30;;;;;;4898238;28;88116;-83
2023/08/10 12:13:17;;;;;;;3.72;1.90;;;23.90;53.30;;;;;;4899067;28;86829;-83
2023/08/10 12:15:48;;;;;;;6.95;1.95;;;23.90;53.90;;;;;;4899742;28;87412;-84
2023/08/10 12:18:16;;;;;;;7.90;1.85;;;23.90;53.70;;;;;;4897748;28;88283;-83
2023/08/10 12:20:46;;;;;;;7.22;1.65;;;23.80;54.00;;;;;;4899928;28;88292;-82
2023/08/10 12:23:13;;;;;;;8.98;2.13;;;23.80;54.40;;;;;;4898371;28;87432;-82
2023/08/10 12:25:40;;;;;;;5.53;2.10;;;23.80;54.50;;;;;;4900040;28;88289;-82
2023/08/10 12:28:07;;;;;;;13.02;2.20;;;23.80;54.70;;;;;;4896225;28;87986;-87
2023/08/10 12:30:33;;;;;;;3.55;2.00;;;23.80;54.70;;;;;;4894961;28;87674;-86
2023/08/10 12:33:00;;;;;;;5.32;2.28;;;23.80;55.00;;;;;;4898233;28;87545;-82
2023/08/10 12:35:26;;;;;;;5.25;2.20;;;23.80;55.20;;;;;;4902288;28;88124;-86
2023/08/10 12:37:51;;;;;;;4.30;2.15;;;23.80;55.40;;;;;;4904382;28;87385;-83
2023/08/10 12:40:17;;;;;;;7.95;2.40;;;24.00;55.40;;;;;;4902923;28;87601;-83
2023/08/10 12:42:44;;;;;;;7.30;2.17;;;24.00;54.80;;;;;;4903279;28;87399;-87
2023/08/10 12:45:11;;;;;;;5.22;2.08;;;24.10;54.30;;;;;;4898642;28;88805;-87
2023/08/10 12:47:41;;;;;;;7.43;2.20;;;24.10;54.20;;;;;;4901453;28;88868;-83
2023/08/10 12:50:13;;;;;;;9.50;2.30;;;24.00;54.30;;;;;;4896742;28;87657;-83
2023/08/10 12:52:39;;;;;;;9.07;2.88;;;24.00;54.60;;;;;;4900796;28;88137;-90